Time;durP1;ratioP1;P1;durP2;ratioP2;P2;SDS_P1;SDS_P2;PMS_P1;PMS_P2;Temp;Humidity;BMP_temperature;BMP_pressure;BME280_temperature;BME280_humidity;BME280_pressure;Samples;Min_cycle;Max_cycle;Signal;HPM_P1;HPM_P2
2022/08/08 12:49:58;;;;;;;7.18;2.35;;;;;;;36.15;20.97;99281.94;5069549;23;20231;-72
2022/08/08 12:52:24;;;;;;;10.02;2.50;;;;;;;36.02;20.85;99286.06;4950912;28;20290;-73
2022/08/08 12:57:31;;;;;;;4.32;1.83;;;;;;;35.70;20.85;99287.44;5338429;23;20713;-69
2022/08/08 12:59:58;;;;;;;7.68;2.22;;;;;;;35.66;21.26;99278.28;4952002;29;20247;-66
2022/08/08 13:02:26;;;;;;;5.35;2.35;;;;;;;35.67;20.88;99266.03;4953891;29;20204;-66
2022/08/08 13:04:55;;;;;;;4.13;1.92;;;;;;;35.65;21.22;99269.19;4953762;29;20196;-67
2022/08/08 13:07:34;;;;;;;5.65;1.95;;;;;;;35.68;21.41;99251.06;4953916;29;20192;-67
2022/08/08 13:10:03;;;;;;;9.60;2.10;;;;;;;35.64;21.29;99269.56;4954359;29;20218;-68
2022/08/08 13:12:32;;;;;;;2.85;2.00;;;;;;;35.70;21.09;99243.19;4953694;29;20722;-68
2022/08/08 13:15:02;;;;;;;4.75;2.30;;;;;;;35.76;21.79;99247.28;4953912;29;20291;-68
2022/08/08 13:17:30;;;;;;;5.03;2.22;;;;;;;35.86;21.14;99264.06;4939238;29;20267;-68
2022/08/08 13:19:58;;;;;;;6.65;2.00;;;;;;;35.79;21.18;99257.59;4934977;29;20203;-66
2022/08/08 13:22:26;;;;;;;5.38;1.98;;;;;;;35.79;21.40;99263.94;4934555;29;20594;-68
2022/08/08 13:24:54;;;;;;;5.78;2.08;;;;;;;35.64;21.39;99255.75;4952369;29;20259;-67
2022/08/08 13:27:27;;;;;;;4.97;2.20;;;;;;;35.65;20.95;99251.78;4954029;29;20287;-66
2022/08/08 13:29:56;;;;;;;5.40;2.00;;;;;;;35.73;21.36;99254.31;4953930;29;20188;-66
2022/08/08 13:32:24;;;;;;;4.93;2.22;;;;;;;35.73;20.94;99242.47;4953372;29;20685;-66
2022/08/08 13:34:52;;;;;;;4.72;2.00;;;;;;;35.70;21.40;99244.00;4951542;29;20235;-66
2022/08/08 13:37:19;;;;;;;3.00;2.03;;;;;;;35.81;21.04;99245.00;4953360;29;20671;-66
2022/08/08 13:39:50;;;;;;;2.35;1.90;;;;;;;35.95;20.94;99264.63;4953236;29;20697;-66
2022/08/08 13:42:17;;;;;;;4.45;1.90;;;;;;;35.79;20.54;99263.94;4947342;29;20260;-66
2022/08/08 13:44:45;;;;;;;7.25;1.80;;;;;;;35.46;21.17;99243.53;4953559;29;20651;-65
2022/08/08 13:47:16;;;;;;;5.40;2.13;;;;;;;35.41;21.35;99244.66;4953423;29;20196;-66
2022/08/08 13:49:42;;;;;;;4.15;1.85;;;;;;;35.30;21.26;99242.81;4954707;29;20239;-66
2022/08/08 13:52:11;;;;;;;3.80;1.95;;;;;;;35.34;21.59;99251.97;4953290;29;20706;-66
2022/08/08 13:54:40;;;;;;;4.03;2.10;;;;;;;35.23;21.63;99240.69;4953415;29;20642;-66
2022/08/08 13:57:13;;;;;;;4.75;1.90;;;;;;;35.34;21.24;99238.16;4953302;29;20726;-66
2022/08/08 13:59:42;;;;;;;11.68;1.73;;;;;;;35.36;21.47;99238.59;4953805;29;20188;-67
2022/08/08 14:02:17;;;;;;;2.92;1.70;;;;;;;35.40;21.62;99234.72;4953834;28;20328;-66
2022/08/08 14:04:58;;;;;;;5.82;2.00;;;;;;;35.37;21.59;99245.72;4957008;29;20569;-66
2022/08/08 14:07:27;;;;;;;4.60;2.20;;;;;;;35.32;21.51;99237.75;4919180;29;20732;-65
2022/08/08 14:09:59;;;;;;;3.67;2.08;;;;;;;35.39;21.10;99238.66;4953306;29;20199;-65
2022/08/08 14:12:28;;;;;;;5.63;1.70;;;;;;;35.45;21.36;99239.19;4957710;29;20290;-65
2022/08/08 14:14:55;;;;;;;4.30;2.30;;;;;;;35.31;21.81;99236.16;4956991;29;20738;-65
2022/08/08 14:17:22;;;;;;;3.60;1.80;;;;;;;35.19;21.78;99247.31;4957412;29;20251;-65
2022/08/08 14:19:49;;;;;;;3.22;2.30;;;;;;;35.13;21.91;99241.28;4956858;29;20291;-66
2022/08/08 14:22:17;;;;;;;2.90;2.25;;;;;;;35.10;22.21;99235.66;4956720;29;20625;-65
2022/08/08 14:24:49;;;;;;;6.03;2.08;;;;;;;35.10;22.26;99241.19;4956898;29;20207;-65
2022/08/08 14:27:18;;;;;;;4.88;2.20;;;;;;;34.98;22.45;99222.03;4957070;29;20192;-66
2022/08/08 14:30:08;;;;;;;3.95;2.22;;;;;;;34.98;22.56;99233.09;4956637;29;20655;-63
2022/08/08 14:32:36;;;;;;;5.82;2.15;;;;;;;34.93;22.32;99239.69;4956359;29;20588;-67
2022/08/08 14:35:05;;;;;;;3.17;2.10;;;;;;;34.97;22.43;99225.94;4945174;29;20197;-67
2022/08/08 14:37:39;;;;;;;2.40;2.10;;;;;;;34.97;22.41;99220.41;4937574;29;20204;-63
2022/08/08 14:40:08;;;;;;;6.82;2.08;;;;;;;34.96;22.69;99229.88;4940146;29;20187;-67
2022/08/08 14:42:38;;;;;;;4.80;2.20;;;;;;;34.89;22.47;99226.94;4945989;29;20663;-69
2022/08/08 14:45:08;;;;;;;2.25;2.10;;;;;;;34.92;22.65;99229.00;4947480;29;20570;-70
2022/08/08 14:47:51;;;;;;;4.07;2.00;;;;;;;34.97;22.37;99234.22;4946979;29;20583;-69
2022/08/08 14:50:20;;;;;;;5.57;2.60;;;;;;;34.91;22.19;99236.47;4941279;29;20196;-68
2022/08/08 14:52:53;;;;;;;4.20;2.47;;;;;;;34.91;21.95;99227.41;4936931;29;20289;-68
2022/08/08 14:55:22;;;;;;;2.72;2.33;;;;;;;34.92;22.64;99221.53;4934580;29;20283;-78
2022/08/08 14:57:49;;;;;;;3.00;2.10;;;;;;;34.95;22.97;99222.75;4934989;29;20229;-66
2022/08/08 15:00:18;;;;;;;5.55;2.40;;;;;;;34.84;22.58;99228.06;4934750;29;20975;-67
2022/08/08 15:02:46;;;;;;;4.32;2.13;;;;;;;34.80;22.38;99231.88;4935659;29;20263;-67
2022/08/08 15:05:12;;;;;;;2.40;2.10;;;;;;;34.79;22.62;99230.28;4936874;29;20201;-67
2022/08/08 15:07:39;;;;;;;3.33;2.25;;;;;;;34.78;22.80;99228.69;4937209;29;20197;-67
2022/08/08 15:10:07;;;;;;;3.60;2.25;;;;;;;34.77;22.65;99218.78;4936598;29;20201;-67
2022/08/08 15:12:35;;;;;;;5.75;3.45;;;;;;;34.75;22.89;99221.09;4935732;29;20272;-67
2022/08/08 15:15:02;;;;;;;2.38;2.17;;;;;;;34.69;22.93;99212.31;4936089;29;20268;-67
2022/08/08 15:17:30;;;;;;;6.07;2.13;;;;;;;34.71;22.89;99214.72;4935816;29;20256;-64
2022/08/08 15:19:56;;;;;;;3.10;1.90;;;;;;;34.73;23.02;99217.91;4934066;29;20208;-66
2022/08/08 15:22:23;;;;;;;6.65;2.47;;;;;;;34.77;22.85;99216.00;4936128;29;20275;-66
2022/08/08 15:24:50;;;;;;;1.90;1.80;;;;;;;34.83;22.12;99214.63;4950456;29;20751;-67
2022/08/08 15:27:16;;;;;;;2.42;1.90;;;;;;;34.80;22.15;99207.84;4956718;29;20200;-66
2022/08/08 15:29:43;;;;;;;2.63;2.50;;;;;;;34.87;22.17;99207.97;4955921;29;20200;-67
2022/08/08 15:32:10;;;;;;;5.05;2.35;;;;;;;34.87;22.40;99216.25;4955966;29;20223;-67
2022/08/08 15:34:38;;;;;;;3.80;1.90;;;;;;;34.82;22.55;99221.31;4955723;29;20664;-67
2022/08/08 15:37:05;;;;;;;2.30;2.10;;;;;;;34.81;22.43;99216.91;4955562;29;20679;-67
2022/08/08 15:39:33;;;;;;;3.10;2.35;;;;;;;34.80;22.40;99210.63;4935869;29;20267;-67
2022/08/08 15:42:00;;;;;;;2.28;2.13;;;;;;;34.84;22.41;99205.16;4955290;29;20208;-67
2022/08/08 15:44:27;;;;;;;3.05;2.20;;;;;;;34.89;22.59;99213.97;4955538;29;20730;-67
2022/08/08 15:46:54;;;;;;;1.95;1.85;;;;;;;34.86;22.50;99213.91;4955817;29;20192;-67
2022/08/08 15:49:21;;;;;;;3.17;2.30;;;;;;;34.77;22.78;99213.25;4955267;29;20204;-67
2022/08/08 15:51:50;;;;;;;4.97;2.40;;;;;;;34.74;23.31;99206.50;4955765;29;20195;-67
2022/08/08 15:54:18;;;;;;;2.78;2.63;;;;;;;34.71;23.66;99207.25;4955443;29;20227;-67
2022/08/08 15:56:45;;;;;;;2.10;2.00;;;;;;;34.81;23.78;99219.69;4955707;29;20287;-67
2022/08/08 15:59:12;;;;;;;4.43;2.53;;;;;;;34.72;23.54;99213.53;4956235;29;20236;-68
2022/08/08 16:01:39;;;;;;;3.10;2.20;;;;;;;34.69;23.87;99209.53;4955609;29;20231;-68
2022/08/08 16:04:05;;;;;;;4.63;2.53;;;;;;;34.70;23.79;99213.91;4955511;29;20195;-68
2022/08/08 16:06:32;;;;;;;4.38;2.50;;;;;;;34.68;24.29;99213.47;4955371;29;20195;-67
2022/08/08 16:09:00;;;;;;;3.47;2.55;;;;;;;34.69;24.28;99225.31;4955198;29;20204;-68
2022/08/08 16:11:27;;;;;;;3.47;2.55;;;;;;;34.56;24.66;99221.06;4955247;29;20259;-67
2022/08/08 16:13:54;;;;;;;3.70;2.42;;;;;;;34.50;24.93;99217.78;4955384;29;20232;-67
2022/08/08 16:16:20;;;;;;;5.88;2.20;;;;;;;34.54;24.92;99215.13;4955367;29;20200;-67
2022/08/08 16:18:49;;;;;;;3.78;2.20;;;;;;;34.48;25.05;99209.09;4955197;29;20578;-67
2022/08/08 16:21:15;;;;;;;2.60;2.30;;;;;;;34.45;25.31;99225.56;4954677;29;20659;-67
2022/08/08 16:23:42;;;;;;;2.67;2.20;;;;;;;34.44;25.39;99223.94;4954802;29;20200;-68
2022/08/08 16:26:11;;;;;;;3.20;2.60;;;;;;;34.41;25.60;99224.69;4954148;28;20660;-67
2022/08/08 16:28:38;;;;;;;5.18;2.78;;;;;;;34.25;26.33;99223.88;4954974;29;20558;-67
2022/08/08 16:31:05;;;;;;;6.07;2.78;;;;;;;34.08;26.70;99243.56;4954839;29;20200;-67
2022/08/08 16:33:32;;;;;;;6.55;3.00;;;;;;;33.91;26.87;99238.38;4954458;29;20703;-67
2022/08/08 16:35:59;;;;;;;4.90;2.78;;;;;;;33.66;27.79;99247.94;4954520;29;20192;-67
2022/08/08 16:38:26;;;;;;;4.82;3.10;;;;;;;33.43;28.32;99233.16;4954687;29;20200;-66
2022/08/08 16:40:53;;;;;;;6.68;2.72;;;;;;;33.23;28.49;99238.50;4945268;29;20261;-66
2022/08/08 16:43:21;;;;;;;14.27;3.45;;;;;;;33.06;28.99;99255.31;4935406;29;20672;-66
2022/08/08 16:45:48;;;;;;;10.20;2.90;;;;;;;32.70;30.22;99266.38;4935738;29;20200;-66
2022/08/08 16:48:15;;;;;;;4.43;2.50;;;;;;;32.34;31.76;99302.16;4935400;29;20201;-65
2022/08/08 16:50:42;;;;;;;7.53;5.33;;;;;;;31.73;39.26;99330.63;4935379;29;20209;-71
2022/08/08 16:53:09;;;;;;;7.17;3.07;;;;;;;31.07;42.53;99322.66;4935216;29;20224;-71
2022/08/08 16:55:36;;;;;;;2.80;2.60;;;;;;;30.87;41.05;99307.75;4935224;29;20255;-70
2022/08/08 16:58:03;;;;;;;2.67;2.47;;;;;;;30.73;41.80;99296.25;4935214;29;20686;-68
2022/08/08 17:00:31;;;;;;;3.63;3.27;;;;;;;30.60;43.93;99280.81;4935155;29;20224;-61
2022/08/08 17:02:58;;;;;;;9.17;3.83;;;;;;;30.51;49.10;99266.34;4935190;29;20672;-61
2022/08/08 17:05:25;;;;;;;8.03;4.70;;;;;;;30.35;54.08;99221.47;4935220;29;20200;-62
2022/08/08 17:07:52;;;;;;;5.87;3.93;;;;;;;30.36;57.08;99235.94;4935123;29;20197;-62
2022/08/08 17:10:18;;;;;;;5.07;4.13;;;;;;;30.11;58.20;99245.09;4935186;29;20201;-62
2022/08/08 17:12:46;;;;;;;6.67;5.50;;;;;;;29.77;46.50;99257.00;4934956;29;20221;-61
2022/08/08 17:15:13;;;;;;;5.20;4.47;;;;;;;29.74;57.34;99251.34;4935755;29;20264;-62
2022/08/08 17:17:41;;;;;;;6.27;5.13;;;;;;;29.75;56.90;99242.81;4935136;29;20201;-62
2022/08/08 17:20:09;;;;;;;5.83;5.47;;;;;;;29.75;61.09;99253.78;4934841;29;20629;-60
2022/08/08 17:22:35;;;;;;;12.67;9.13;;;;;;;29.73;62.15;99258.78;4934850;29;20259;-68
2022/08/08 17:25:03;;;;;;;6.30;5.07;;;;;;;29.69;65.94;99259.75;4943100;29;20204;-68
2022/08/08 17:27:29;;;;;;;7.80;6.07;;;;;;;29.61;67.95;99255.91;4935085;29;20628;-68
2022/08/08 17:29:56;;;;;;;8.97;6.70;;;;;;;29.51;69.53;99258.16;4917961;29;20200;-67
2022/08/08 17:32:23;;;;;;;8.77;8.07;;;;;;;29.41;68.08;99267.53;4934431;29;20672;-68
2022/08/08 17:34:53;;;;;;;8.80;8.10;;;;;;;29.36;63.75;99281.38;4934569;29;20231;-68
2022/08/08 17:37:20;;;;;;;7.90;7.17;;;;;;;29.35;53.89;99285.22;4933683;29;20665;-68
2022/08/08 17:39:48;;;;;;;16.30;7.33;;;;;;;29.38;64.73;99276.38;4935654;29;20197;-68
2022/08/08 17:42:15;;;;;;;13.07;8.80;;;;;;;29.39;68.56;99275.25;4954345;29;20259;-70
2022/08/08 17:44:42;;;;;;;10.27;9.10;;;;;;;29.36;70.68;99284.13;4953753;29;20667;-68
2022/08/08 17:47:09;;;;;;;8.50;7.70;;;;;;;29.37;67.95;99287.63;4953853;29;20196;-68
2022/08/08 17:49:36;;;;;;;7.23;6.50;;;;;;;29.33;69.36;99289.41;4953801;29;20199;-67
2022/08/08 17:52:06;;;;;;;6.67;6.17;;;;;;;29.29;68.29;99294.75;4953624;29;20224;-69
2022/08/08 17:54:33;;;;;;;17.57;14.33;;;;;;;29.11;69.60;99268.50;4953651;29;20215;-68
2022/08/08 17:57:01;;;;;;;6.60;6.00;;;;;;;29.29;62.29;99313.91;4937103;29;20621;-69
2022/08/08 17:59:27;;;;;;;5.70;4.30;;;;;;;29.26;54.68;99324.69;4953833;29;20196;-68
2022/08/08 18:01:56;;;;;;;6.10;5.33;;;;;;;29.28;52.55;99331.44;4953857;29;20196;-68
2022/08/08 18:04:25;;;;;;;4.40;4.10;;;;;;;29.36;49.88;99346.25;4953504;29;20235;-68
2022/08/08 18:06:53;;;;;;;4.70;4.40;;;;;;;29.38;48.58;99339.31;4953763;29;20196;-68
2022/08/08 18:09:21;;;;;;;7.63;4.97;;;;;;;29.47;52.20;99348.34;4953571;29;20200;-68
2022/08/08 18:11:48;;;;;;;5.20;4.80;;;;;;;29.49;55.95;99337.88;4953422;29;20227;-68
2022/08/08 18:14:14;;;;;;;10.00;5.07;;;;;;;29.51;58.71;99330.13;4953590;29;20303;-68
2022/08/08 18:16:44;;;;;;;15.03;7.97;;;;;;;29.49;58.61;99340.63;4953894;29;20192;-67
2022/08/08 18:19:12;;;;;;;9.97;7.67;;;;;;;29.49;59.02;99337.06;4953683;29;20235;-68
2022/08/08 18:21:39;;;;;;;8.90;5.63;;;;;;;29.41;49.98;99352.38;4953259;29;20202;-68
2022/08/08 18:24:07;;;;;;;6.80;4.97;;;;;;;29.45;48.17;99364.28;4953580;29;20207;-68
2022/08/08 18:26:35;;;;;;;7.37;5.73;;;;;;;29.27;47.28;99335.28;4954044;29;20196;-68
2022/08/08 18:29:03;;;;;;;11.57;8.33;;;;;;;29.49;54.94;99356.22;4953374;29;20663;-68
2022/08/08 18:31:30;;;;;;;8.30;5.80;;;;;;;29.52;52.64;99367.31;4949055;29;20247;-69
2022/08/08 18:33:57;;;;;;;10.67;9.57;;;;;;;29.52;46.21;99374.75;4934339;29;20281;-69
2022/08/08 18:36:24;;;;;;;9.03;6.50;;;;;;;29.54;48.54;99380.69;4934769;29;20304;-68
2022/08/08 18:38:50;;;;;;;7.20;6.57;;;;;;;29.56;47.60;99381.97;4935033;29;20197;-68
2022/08/08 18:41:17;;;;;;;6.77;4.27;;;;;;;29.57;46.01;99383.66;4934116;29;20668;-67
2022/08/08 18:43:45;;;;;;;5.90;5.30;;;;;;;29.54;43.79;99389.72;4940456;29;20197;-68
2022/08/08 18:46:13;;;;;;;4.30;3.60;;;;;;;29.55;42.07;99385.06;4939848;29;20629;-67
2022/08/08 18:48:40;;;;;;;10.20;9.40;;;;;;;29.52;44.02;99391.19;4935327;29;20201;-67
2022/08/08 18:51:09;;;;;;;11.13;10.30;;;;;;;29.52;41.97;99402.91;4937413;29;20197;-67
2022/08/08 18:53:36;;;;;;;6.30;5.60;;;;;;;29.53;42.17;99399.06;4937233;29;20225;-68
2022/08/08 18:56:02;;;;;;;10.77;9.53;;;;;;;29.57;46.81;99389.13;4937052;29;20253;-68
2022/08/08 18:58:29;;;;;;;9.77;8.43;;;;;;;29.56;44.17;99403.88;4937616;29;20233;-68
2022/08/08 19:00:57;;;;;;;17.53;12.87;;;;;;;29.58;46.66;99396.19;4937808;29;20193;-67
2022/08/08 19:03:24;;;;;;;13.03;10.90;;;;;;;29.56;47.79;99403.09;4938281;29;20196;-67
2022/08/08 19:05:51;;;;;;;11.70;6.87;;;;;;;29.54;46.16;99400.69;4920431;29;20256;-67
2022/08/08 19:08:20;;;;;;;8.90;8.10;;;;;;;29.55;48.53;99396.81;4936961;29;20578;-67
2022/08/08 19:10:46;;;;;;;15.50;12.13;;;;;;;29.50;50.07;99394.25;4937493;29;20200;-67
2022/08/08 19:13:14;;;;;;;11.40;10.20;;;;;;;29.46;52.72;99393.28;4937788;29;20291;-67
2022/08/08 19:15:41;;;;;;;12.53;8.90;;;;;;;29.44;53.92;99392.81;4936961;29;20739;-67
2022/08/08 19:18:11;;;;;;;14.97;8.33;;;;;;;29.44;54.47;99395.53;4937418;29;20257;-67
2022/08/08 19:20:39;;;;;;;12.70;8.33;;;;;;;29.41;54.71;99398.91;4937972;29;20189;-67
2022/08/08 19:23:07;;;;;;;9.60;6.20;;;;;;;29.34;51.62;99401.31;4936796;29;20192;-67
2022/08/08 19:25:36;;;;;;;11.17;6.27;;;;;;;29.18;50.85;99411.09;4936800;29;20201;-64
2022/08/08 19:28:03;;;;;;;8.10;4.13;;;;;;;29.16;51.71;99399.69;4937546;29;20193;-64
2022/08/08 19:30:29;;;;;;;4.13;3.83;;;;;;;29.17;48.06;99409.50;4937197;29;20201;-64
2022/08/08 19:32:57;;;;;;;5.57;4.80;;;;;;;29.10;49.44;99412.72;4936555;29;20669;-64
2022/08/08 19:35:25;;;;;;;6.03;3.33;;;;;;;29.11;45.64;99413.50;4936640;29;20207;-64
2022/08/08 19:37:52;;;;;;;11.00;5.33;;;;;;;29.13;46.42;99405.78;4937625;29;20197;-64
2022/08/08 19:40:19;;;;;;;9.57;5.00;;;;;;;29.15;46.72;99409.00;4936531;29;20642;-64
2022/08/08 19:42:48;;;;;;;6.50;4.30;;;;;;;29.14;46.12;99412.88;4936470;29;20296;-64
2022/08/08 19:45:14;;;;;;;10.00;4.43;;;;;;;29.16;48.81;99396.97;4936331;29;20711;-64
2022/08/08 19:47:41;;;;;;;8.20;5.53;;;;;;;29.14;50.94;99399.19;4936421;29;20251;-64
2022/08/08 19:50:09;;;;;;;10.90;4.87;;;;;;;29.12;49.96;99398.72;4937223;29;20201;-64
2022/08/08 19:52:37;;;;;;;10.23;5.53;;;;;;;29.13;52.01;99400.31;4936358;29;20197;-63
2022/08/08 19:55:07;;;;;;;12.87;5.23;;;;;;;29.13;54.00;99397.59;4936244;29;20316;-63
2022/08/08 19:57:36;;;;;;;12.17;4.87;;;;;;;29.07;50.79;99404.31;4936384;29;20715;-63
2022/08/08 20:00:06;;;;;;;6.93;4.20;;;;;;;29.05;47.79;99406.59;4935674;29;20276;-64
2022/08/08 20:02:33;;;;;;;5.07;4.57;;;;;;;29.02;49.49;99401.75;4936445;29;20562;-64
2022/08/08 20:05:02;;;;;;;7.47;4.00;;;;;;;29.03;46.73;99411.59;4936005;29;20665;-64
2022/08/08 20:07:28;;;;;;;8.07;4.90;;;;;;;29.05;47.64;99409.31;4936359;29;20212;-64
2022/08/08 20:09:56;;;;;;;10.03;4.80;;;;;;;29.05;47.79;99407.41;4936314;29;20213;-64
2022/08/08 20:12:23;;;;;;;7.43;4.50;;;;;;;29.07;50.16;99404.31;4936886;29;20193;-64
2022/08/08 20:14:50;;;;;;;11.10;5.43;;;;;;;29.07;50.55;99407.88;4918920;29;20694;-64
2022/08/08 20:17:17;;;;;;;16.23;5.50;;;;;;;29.03;50.13;99406.09;4936126;29;20192;-64
2022/08/08 20:19:44;;;;;;;7.03;4.53;;;;;;;29.05;50.67;99409.31;4935878;29;20208;-64
2022/08/08 20:22:10;;;;;;;6.83;4.60;;;;;;;28.99;49.79;99427.00;4935944;29;20204;-64
2022/08/08 20:24:37;;;;;;;5.97;4.43;;;;;;;28.97;47.88;99415.53;4936076;29;20208;-64
2022/08/08 20:27:05;;;;;;;9.07;4.63;;;;;;;28.94;48.61;99424.38;4935681;29;20201;-64
2022/08/08 20:29:33;;;;;;;11.90;5.80;;;;;;;28.93;49.16;99418.13;4918937;29;20669;-64
2022/08/08 20:32:00;;;;;;;7.00;4.60;;;;;;;28.94;48.08;99424.38;4936013;29;20212;-69
2022/08/08 20:34:28;;;;;;;4.80;4.17;;;;;;;28.93;47.93;99428.25;4935797;29;20228;-69
2022/08/08 20:36:54;;;;;;;6.23;4.50;;;;;;;28.92;47.57;99426.63;4935951;29;20727;-65
2022/08/08 20:39:21;;;;;;;5.10;4.30;;;;;;;28.90;46.09;99431.59;4935909;29;20252;-65
2022/08/08 20:41:48;;;;;;;4.63;3.90;;;;;;;28.89;46.25;99432.72;4935532;29;20660;-64
2022/08/08 20:44:16;;;;;;;8.20;4.00;;;;;;;28.89;45.55;99443.69;4935445;29;20252;-64
2022/08/08 20:46:42;;;;;;;5.77;4.63;;;;;;;28.89;46.29;99435.47;4935755;29;20255;-64
2022/08/08 20:49:09;;;;;;;7.93;4.17;;;;;;;28.85;46.80;99434.50;4935337;29;20657;-64
2022/08/08 20:51:36;;;;;;;4.63;4.30;;;;;;;28.82;44.71;99435.13;4935612;29;20201;-64
2022/08/08 20:54:03;;;;;;;4.33;3.93;;;;;;;28.81;42.99;99436.25;4935264;29;20231;-64
2022/08/08 20:56:31;;;;;;;6.70;4.10;;;;;;;28.81;44.02;99433.50;4936365;29;20256;-64
2022/08/08 20:58:57;;;;;;;4.93;4.43;;;;;;;28.80;43.93;99430.00;4936078;29;20236;-64
2022/08/08 21:01:26;;;;;;;5.00;4.40;;;;;;;28.81;44.59;99437.06;4935168;29;20197;-64
2022/08/08 21:03:53;;;;;;;5.30;4.30;;;;;;;28.69;44.02;99427.84;4935182;29;20196;-64
2022/08/08 21:06:20;;;;;;;5.50;4.27;;;;;;;28.68;44.63;99432.50;4935463;29;20268;-63
2022/08/08 21:08:46;;;;;;;7.30;3.97;;;;;;;28.65;44.81;99443.25;4935091;29;20260;-64
2022/08/08 21:11:13;;;;;;;8.03;4.27;;;;;;;28.66;44.77;99433.94;4935176;29;20193;-64
2022/08/08 21:13:41;;;;;;;6.43;4.87;;;;;;;28.66;45.43;99436.66;4935326;29;20200;-64
2022/08/08 21:16:08;;;;;;;9.03;4.93;;;;;;;28.66;44.97;99442.13;4934928;29;20630;-64
2022/08/08 21:18:36;;;;;;;9.93;4.80;;;;;;;28.65;45.98;99437.78;4935286;29;20256;-64
2022/08/08 21:21:13;;;;;;;5.40;4.13;;;;;;;28.65;44.68;99448.72;4935716;29;20255;-64
2022/08/08 21:23:39;;;;;;;4.57;4.17;;;;;;;28.60;44.37;99446.13;4934946;29;20279;-64
2022/08/08 21:26:06;;;;;;;5.17;3.50;;;;;;;28.60;44.69;99446.13;4935754;29;20201;-64
2022/08/08 21:28:33;;;;;;;4.43;3.70;;;;;;;28.59;45.64;99445.31;4934919;29;20209;-64
2022/08/08 21:31:00;;;;;;;4.87;3.80;;;;;;;28.59;44.13;99448.06;4935163;29;20633;-64
2022/08/08 21:33:28;;;;;;;6.47;4.33;;;;;;;28.59;45.42;99444.53;4935943;29;20204;-64
2022/08/08 21:35:57;;;;;;;4.77;4.27;;;;;;;28.61;45.63;99447.75;4934777;29;20201;-64
2022/08/08 21:38:24;;;;;;;4.27;3.77;;;;;;;28.62;45.20;99444.69;4934793;29;20201;-64
2022/08/08 21:40:51;;;;;;;4.33;3.93;;;;;;;28.63;45.70;99450.97;4935560;29;20193;-64
2022/08/08 21:43:18;;;;;;;11.83;4.40;;;;;;;28.61;46.69;99447.75;4934960;29;20193;-64
2022/08/08 21:45:44;;;;;;;5.80;4.03;;;;;;;28.56;45.39;99447.88;4934675;29;20624;-64
2022/08/08 21:48:12;;;;;;;5.53;4.00;;;;;;;28.56;47.32;99450.63;4935278;29;20228;-64
2022/08/08 21:50:41;;;;;;;6.37;4.30;;;;;;;28.59;47.94;99447.25;4934668;29;20197;-64
2022/08/08 21:53:10;;;;;;;4.13;3.83;;;;;;;28.54;48.33;99445.47;4934867;29;20284;-64
2022/08/08 21:55:36;;;;;;;6.27;4.03;;;;;;;28.53;48.91;99452.06;4935396;29;20298;-64
2022/08/08 21:58:04;;;;;;;7.87;4.20;;;;;;;28.49;48.84;99450.25;4934722;29;20229;-64
2022/08/08 22:00:30;;;;;;;4.50;4.10;;;;;;;28.51;48.81;99453.50;4935621;29;20287;-64
2022/08/08 22:02:57;;;;;;;8.37;4.30;;;;;;;28.49;49.17;99452.97;4935396;29;20204;-64
2022/08/08 22:05:24;;;;;;;6.60;4.40;;;;;;;28.47;49.17;99447.03;4934548;29;20196;-64
2022/08/08 22:07:51;;;;;;;6.10;4.20;;;;;;;28.47;49.28;99452.50;4934522;29;20197;-64
2022/08/08 22:10:19;;;;;;;4.60;3.80;;;;;;;28.48;49.73;99444.00;4935611;29;20204;-64
2022/08/08 22:12:46;;;;;;;7.03;4.43;;;;;;;28.50;49.60;99449.16;4935061;29;20199;-64
2022/08/08 22:15:13;;;;;;;5.03;4.13;;;;;;;28.38;49.46;99448.91;4934956;29;20235;-64
2022/08/08 22:17:40;;;;;;;4.20;3.90;;;;;;;28.33;50.06;99451.72;4935063;29;20263;-64
2022/08/08 22:20:07;;;;;;;7.17;3.83;;;;;;;28.37;49.70;99450.81;4934966;29;20204;-64
2022/08/08 22:22:34;;;;;;;8.67;4.03;;;;;;;28.41;49.85;99453.75;4934446;29;20197;-64
2022/08/08 22:25:01;;;;;;;6.50;3.77;;;;;;;28.43;50.06;99455.03;4937643;29;20569;-64
2022/08/08 22:27:29;;;;;;;4.47;4.07;;;;;;;28.42;50.68;99463.56;4938307;29;20197;-64
2022/08/08 22:29:55;;;;;;;4.40;3.83;;;;;;;28.39;50.30;99462.25;4937909;29;20252;-64
2022/08/08 22:32:22;;;;;;;4.70;3.73;;;;;;;28.43;50.69;99462.44;4937957;29;20651;-64
2022/08/08 22:34:49;;;;;;;5.90;4.70;;;;;;;28.40;51.95;99468.50;4938066;29;20228;-64
2022/08/08 22:37:15;;;;;;;5.67;5.20;;;;;;;28.35;52.42;99466.72;4938538;29;20197;-64
2022/08/08 22:39:42;;;;;;;7.10;4.20;;;;;;;28.34;52.29;99467.03;4937801;29;20197;-64
2022/08/08 22:42:09;;;;;;;4.97;4.57;;;;;;;28.26;53.12;99467.78;4937761;29;20197;-64
2022/08/08 22:44:37;;;;;;;4.63;4.33;;;;;;;28.24;53.19;99464.53;4937725;29;20627;-64
2022/08/08 22:47:04;;;;;;;5.27;4.50;;;;;;;28.24;53.32;99461.81;4938798;29;20205;-64
2022/08/08 22:49:31;;;;;;;4.57;4.23;;;;;;;28.21;53.15;99465.16;4938347;29;20201;-64
2022/08/08 22:51:58;;;;;;;5.00;4.37;;;;;;;28.15;53.75;99461.78;4937817;29;20259;-64
2022/08/08 22:54:25;;;;;;;5.90;4.93;;;;;;;28.10;53.58;99461.09;4937348;29;20776;-64
2022/08/08 22:56:51;;;;;;;4.60;4.20;;;;;;;28.07;53.52;99464.44;4937353;29;20200;-64
2022/08/08 22:59:18;;;;;;;4.37;4.07;;;;;;;28.07;53.98;99469.91;4938351;29;20232;-64
2022/08/08 23:01:46;;;;;;;6.90;4.70;;;;;;;28.07;54.05;99469.91;4937723;29;20248;-64
2022/08/08 23:04:13;;;;;;;3.87;3.57;;;;;;;28.00;54.84;99458.59;4937909;29;20256;-64
2022/08/08 23:06:39;;;;;;;8.43;4.23;;;;;;;27.94;54.40;99470.78;4937811;29;20260;-64
2022/08/08 23:09:06;;;;;;;7.10;3.80;;;;;;;27.84;54.95;99469.09;4937302;29;20325;-64
2022/08/08 23:11:33;;;;;;;4.90;4.10;;;;;;;27.79;54.85;99466.44;4937250;29;20759;-64
2022/08/08 23:14:00;;;;;;;5.03;4.10;;;;;;;27.72;55.27;99462.53;4937939;29;20251;-64
2022/08/08 23:16:27;;;;;;;4.80;4.30;;;;;;;27.68;55.24;99456.88;4937301;29;20204;-64
2022/08/08 23:18:55;;;;;;;4.60;4.20;;;;;;;27.61;55.96;99461.16;4937951;29;20264;-64
2022/08/08 23:21:21;;;;;;;4.30;3.90;;;;;;;27.52;55.78;99463.00;4938185;29;20578;-64
2022/08/08 23:23:48;;;;;;;4.40;4.00;;;;;;;27.54;56.34;99458.84;4937259;29;20247;-64
2022/08/08 23:26:15;;;;;;;4.00;3.80;;;;;;;27.56;55.98;99459.34;4937430;29;20266;-64
2022/08/08 23:28:41;;;;;;;4.27;4.00;;;;;;;27.54;55.83;99456.13;4937254;29;20201;-65
2022/08/08 23:31:08;;;;;;;3.90;3.70;;;;;;;27.55;55.57;99456.91;4936868;29;20205;-64
2022/08/08 23:33:35;;;;;;;5.80;3.60;;;;;;;27.62;55.31;99470.94;4936780;29;20201;-64
2022/08/08 23:36:03;;;;;;;4.73;3.57;;;;;;;27.64;55.09;99466.00;4936569;29;20716;-64
2022/08/08 23:38:30;;;;;;;4.20;3.53;;;;;;;27.75;55.04;99464.63;4936696;29;20260;-64
2022/08/08 23:40:57;;;;;;;3.97;3.57;;;;;;;27.77;54.88;99460.47;4937256;29;20200;-64
2022/08/08 23:43:24;;;;;;;6.23;3.97;;;;;;;27.80;54.99;99456.31;4936974;29;20200;-64
2022/08/08 23:45:51;;;;;;;6.37;3.67;;;;;;;27.73;55.43;99458.69;4936644;29;20669;-64
2022/08/08 23:48:17;;;;;;;3.87;3.50;;;;;;;27.58;55.85;99457.13;4936886;29;20201;-64
2022/08/08 23:50:44;;;;;;;4.53;4.13;;;;;;;27.57;55.26;99457.41;4936479;29;20200;-64
2022/08/08 23:53:12;;;;;;;3.70;3.50;;;;;;;27.57;55.32;99454.69;4936724;29;20196;-65
2022/08/08 23:55:39;;;;;;;4.13;3.63;;;;;;;27.50;55.44;99448.84;4936615;29;20275;-65
2022/08/08 23:58:06;;;;;;;5.60;3.80;;;;;;;27.57;54.75;99457.41;4936643;29;20236;-64
